createdAt,value
2019-05-18T00:02:15.783Z,51.60
2019-05-18T00:04:49.037Z,51.70
2019-05-18T00:07:22.786Z,51.70
2019-05-18T00:09:56.468Z,50.90
2019-05-18T00:12:30.623Z,50.40
2019-05-18T00:15:03.456Z,49.90
2019-05-18T00:17:37.144Z,49.80
2019-05-18T00:20:10.960Z,50.40
2019-05-18T00:22:43.738Z,50.80
2019-05-18T00:25:17.769Z,50.90
2019-05-18T00:27:50.102Z,51.20
2019-05-18T00:30:23.796Z,51.20
2019-05-18T00:32:56.919Z,51.70
2019-05-18T00:35:30.238Z,51.40
2019-05-18T00:38:03.895Z,51.00
2019-05-18T00:40:37.867Z,51.70
2019-05-18T00:43:11.570Z,50.90
2019-05-18T00:45:45.697Z,50.60
2019-05-18T00:48:19.348Z,50.20
2019-05-18T00:50:52.688Z,49.80
2019-05-18T00:53:25.448Z,49.50
2019-05-18T00:55:59.170Z,49.40
2019-05-18T00:58:33.308Z,49.30
2019-05-18T01:01:06.111Z,49.20
2019-05-18T01:03:38.981Z,49.10
2019-05-18T01:06:12.786Z,49.10
2019-05-18T01:08:45.733Z,49.30
2019-05-18T01:11:18.993Z,49.40
2019-05-18T01:13:52.639Z,50.90
2019-05-18T01:16:25.913Z,51.20
2019-05-18T01:18:59.186Z,51.80
2019-05-18T01:21:32.938Z,52.60
2019-05-18T01:24:05.903Z,53.20
2019-05-18T01:26:38.160Z,53.90
2019-05-18T01:29:11.922Z,54.10
2019-05-18T01:31:45.448Z,53.60
2019-05-18T01:34:18.797Z,52.90
2019-05-18T01:36:51.967Z,52.70
2019-05-18T01:39:24.831Z,52.60
2019-05-18T01:41:58.049Z,52.60
2019-05-18T01:44:31.342Z,52.40
2019-05-18T01:47:05.159Z,52.20
2019-05-18T01:49:38.765Z,51.80
2019-05-18T01:52:12.367Z,51.40
2019-05-18T01:54:45.283Z,51.10
2019-05-18T01:57:17.990Z,51.00
2019-05-18T01:59:51.791Z,51.60
2019-05-18T02:02:25.154Z,51.20
2019-05-18T02:04:57.894Z,50.90
2019-05-18T02:07:31.925Z,50.80
2019-05-18T02:10:05.760Z,50.80
2019-05-18T02:12:39.444Z,49.60
2019-05-18T02:15:13.270Z,50.40
2019-05-18T02:17:46.799Z,50.30
2019-05-18T02:20:20.514Z,50.40
2019-05-18T02:22:53.916Z,50.70
2019-05-18T02:25:27.702Z,50.30
2019-05-18T02:28:01.457Z,50.40
2019-05-18T02:30:35.164Z,50.10
2019-05-18T02:33:10.014Z,51.20
2019-05-18T02:35:43.621Z,51.60
2019-05-18T02:38:17.483Z,51.30
2019-05-18T02:40:51.669Z,51.10
2019-05-18T02:43:25.315Z,51.00
2019-05-18T02:45:59.015Z,50.20
2019-05-18T02:48:47.671Z,49.90
2019-05-18T02:51:11.462Z,50.50
2019-05-18T02:53:43.126Z,49.60
2019-05-18T02:56:16.912Z,49.70
2019-05-18T02:58:50.655Z,49.90
2019-05-18T03:01:23.907Z,49.30
2019-05-18T03:03:57.911Z,49.30
2019-05-18T03:06:30.681Z,49.30
2019-05-18T03:09:05.673Z,50.20
2019-05-18T03:11:39.479Z,49.80
2019-05-18T03:14:13.344Z,49.40
2019-05-18T03:16:47.010Z,49.40
2019-05-18T03:19:20.287Z,49.40
2019-05-18T03:21:53.918Z,49.40
2019-05-18T03:24:27.124Z,49.40
2019-05-18T03:27:00.814Z,49.30
2019-05-18T03:29:33.618Z,50.00
2019-05-18T03:32:06.848Z,50.40
2019-05-18T03:34:40.505Z,50.60
2019-05-18T03:37:13.924Z,50.30
2019-05-18T03:39:48.176Z,50.30
2019-05-18T03:42:21.008Z,50.40
2019-05-18T03:44:54.670Z,50.80
2019-05-18T03:47:27.511Z,51.20
2019-05-18T03:50:01.216Z,51.80
2019-05-18T03:52:34.915Z,52.00
2019-05-18T03:55:07.833Z,52.30
2019-05-18T03:57:40.720Z,52.50
2019-05-18T04:00:14.814Z,52.90
2019-05-18T04:02:48.915Z,52.90
2019-05-18T04:05:22.547Z,53.00
2019-05-18T04:07:56.867Z,53.10
2019-05-18T04:10:30.405Z,53.00
2019-05-18T04:13:04.656Z,52.90
2019-05-18T04:15:38.794Z,52.70
2019-05-18T04:18:11.658Z,53.00
2019-05-18T04:20:45.301Z,53.00
2019-05-18T04:23:18.584Z,52.90
2019-05-18T04:25:51.360Z,52.90
2019-05-18T04:28:24.928Z,52.80
2019-05-18T04:30:58.728Z,52.80
2019-05-18T04:33:32.032Z,52.90
2019-05-18T04:36:04.829Z,52.50
2019-05-18T04:38:38.243Z,52.10
2019-05-18T04:41:12.048Z,51.90
2019-05-18T04:43:45.728Z,51.50
2019-05-18T04:46:19.550Z,51.10
2019-05-18T04:48:53.748Z,51.80
2019-05-18T04:51:30.647Z,50.50
2019-05-18T04:54:03.911Z,50.90
2019-05-18T04:56:37.204Z,51.00
2019-05-18T04:59:10.528Z,51.00
2019-05-18T05:01:44.636Z,50.70
2019-05-18T05:04:17.405Z,50.70
2019-05-18T05:06:50.709Z,50.80
2019-05-18T05:09:24.577Z,50.60
2019-05-18T05:11:57.897Z,50.10
2019-05-18T05:14:30.785Z,50.10
2019-05-18T05:17:04.516Z,49.50
2019-05-18T05:19:38.835Z,49.10
2019-05-18T05:22:12.898Z,48.80
2019-05-18T05:24:46.524Z,48.40
2019-05-18T05:27:19.454Z,47.90
2019-05-18T05:29:53.729Z,47.50
2019-05-18T05:32:27.661Z,47.60
2019-05-18T05:35:01.408Z,47.90
2019-05-18T05:37:36.820Z,47.50
2019-05-18T05:40:10.417Z,47.40
2019-05-18T05:42:43.776Z,47.20
2019-05-18T05:45:17.693Z,47.90
2019-05-18T05:47:51.026Z,50.90
2019-05-18T05:50:35.393Z,50.60
2019-05-18T05:53:01.082Z,52.10
2019-05-18T05:55:34.833Z,51.30
2019-05-18T05:58:08.157Z,51.20
2019-05-18T06:00:41.756Z,51.50
2019-05-18T06:03:15.387Z,52.00
2019-05-18T06:05:48.747Z,50.70
2019-05-18T06:08:22.619Z,50.60
2019-05-18T06:10:56.242Z,49.80
2019-05-18T06:13:30.920Z,48.70
2019-05-18T06:16:04.456Z,48.70
2019-05-18T06:18:38.589Z,48.40
2019-05-18T06:21:12.349Z,47.20
2019-05-18T06:23:45.973Z,47.50
2019-05-18T06:26:19.209Z,46.80
2019-05-18T06:28:52.339Z,47.20
2019-05-18T06:31:25.496Z,46.60
2019-05-18T06:33:58.410Z,46.80
2019-05-18T06:36:31.653Z,47.20
2019-05-18T06:39:05.618Z,47.30
2019-05-18T06:41:39.295Z,47.20
2019-05-18T06:44:13.273Z,46.50
2019-05-18T06:46:46.591Z,45.80
2019-05-18T06:49:19.683Z,45.00
2019-05-18T06:51:53.810Z,45.20
2019-05-18T06:54:27.498Z,45.50
2019-05-18T06:57:02.948Z,44.70
2019-05-18T06:59:37.735Z,44.40
2019-05-18T07:02:10.830Z,45.20
2019-05-18T07:04:44.787Z,45.90
2019-05-18T07:07:18.569Z,45.80
2019-05-18T07:09:52.301Z,46.00
2019-05-18T07:12:25.255Z,45.50
2019-05-18T07:15:00.474Z,46.60
2019-05-18T07:17:34.729Z,47.60
2019-05-18T07:20:07.690Z,47.50
2019-05-18T07:22:41.059Z,45.70
2019-05-18T07:25:15.325Z,46.30
2019-05-18T07:27:48.646Z,45.50
2019-05-18T07:30:23.083Z,44.80
2019-05-18T07:32:56.887Z,44.80
2019-05-18T07:35:30.762Z,44.60
2019-05-18T07:38:04.459Z,45.10
2019-05-18T07:40:37.676Z,45.50
2019-05-18T07:43:11.529Z,44.70
2019-05-18T07:45:45.229Z,47.00
2019-05-18T07:48:19.095Z,47.10
2019-05-18T07:50:52.266Z,45.80
2019-05-18T07:53:25.961Z,45.70
2019-05-18T07:56:00.105Z,44.00
2019-05-18T07:58:34.380Z,43.40
2019-05-18T08:01:07.589Z,43.20
2019-05-18T08:03:40.677Z,43.60
2019-05-18T08:06:14.494Z,44.10
2019-05-18T08:08:48.579Z,43.70
2019-05-18T08:11:22.850Z,43.60
2019-05-18T08:13:55.833Z,43.40
2019-05-18T08:16:28.320Z,43.10
2019-05-18T08:19:01.172Z,42.70
2019-05-18T08:21:34.328Z,42.40
2019-05-18T08:24:07.319Z,42.10
2019-05-18T08:26:40.200Z,41.40
2019-05-18T08:29:14.041Z,42.30
2019-05-18T08:31:46.954Z,42.40
2019-05-18T08:34:20.730Z,42.90
2019-05-18T08:36:54.043Z,42.70
2019-05-18T08:39:26.071Z,44.10
2019-05-18T08:41:59.384Z,42.60
2019-05-18T08:44:32.214Z,42.40
2019-05-18T08:47:05.415Z,43.00
2019-05-18T08:49:38.813Z,43.00
2019-05-18T08:52:11.309Z,42.10
2019-05-18T08:54:44.167Z,42.10
2019-05-18T08:57:16.588Z,41.60
2019-05-18T08:59:49.395Z,41.60
2019-05-18T09:02:22.333Z,42.00
2019-05-18T09:04:54.632Z,42.30
2019-05-18T09:07:28.139Z,42.80
2019-05-18T09:10:00.096Z,43.00
2019-05-18T09:12:33.082Z,44.00
2019-05-18T09:15:06.268Z,44.00
2019-05-18T09:17:39.200Z,43.50
2019-05-18T09:20:12.307Z,42.10
2019-05-18T09:22:44.815Z,42.20
2019-05-18T09:25:17.567Z,42.10
2019-05-18T09:27:50.381Z,40.80
2019-05-18T09:30:22.437Z,41.80
2019-05-18T09:32:55.782Z,41.60
2019-05-18T09:35:29.907Z,41.70
2019-05-18T09:38:03.211Z,40.90
2019-05-18T09:40:36.205Z,41.90
2019-05-18T09:43:09.537Z,41.90
2019-05-18T09:45:43.943Z,40.10
2019-05-18T09:48:17.313Z,42.10
2019-05-18T09:50:51.357Z,41.70
2019-05-18T09:53:25.711Z,41.10
2019-05-18T09:55:58.879Z,42.60
2019-05-18T09:58:32.068Z,41.20
2019-05-18T10:01:05.369Z,40.00
2019-05-18T10:03:38.626Z,40.00
2019-05-18T10:06:11.995Z,40.20
2019-05-18T10:08:45.501Z,41.00
2019-05-18T10:11:19.553Z,39.70
2019-05-18T10:13:52.711Z,40.50
2019-05-18T10:16:26.296Z,40.70
2019-05-18T10:19:00.390Z,39.60
2019-05-18T10:21:34.513Z,39.90
2019-05-18T10:24:07.364Z,40.10
2019-05-18T10:26:41.204Z,39.30
2019-05-18T10:29:15.498Z,39.60
2019-05-18T10:31:49.499Z,40.20
2019-05-18T10:34:23.168Z,38.70
2019-05-18T10:36:56.816Z,37.00
2019-05-18T10:39:29.857Z,37.60
2019-05-18T10:42:02.742Z,37.40
2019-05-18T10:44:35.853Z,37.20
2019-05-18T10:47:08.667Z,38.60
2019-05-18T10:49:42.430Z,38.20
2019-05-18T10:52:16.073Z,39.00
2019-05-18T10:54:49.281Z,38.70
2019-05-18T10:57:23.179Z,39.10
2019-05-18T10:59:56.881Z,37.50
2019-05-18T11:02:30.317Z,37.50
2019-05-18T11:05:03.981Z,38.50
2019-05-18T11:07:37.205Z,37.10
2019-05-18T11:10:11.247Z,36.90
2019-05-18T11:12:44.167Z,36.30
2019-05-18T11:15:18.673Z,37.20
2019-05-18T11:17:52.307Z,36.40
2019-05-18T11:20:26.294Z,35.50
2019-05-18T11:22:59.934Z,36.10
2019-05-18T11:25:34.021Z,35.40
2019-05-18T11:28:07.696Z,35.30
2019-05-18T11:30:40.456Z,36.00
2019-05-18T11:33:14.205Z,36.10
2019-05-18T11:35:47.237Z,35.90
2019-05-18T11:38:21.034Z,35.40
2019-05-18T11:40:54.774Z,36.50
2019-05-18T11:43:29.020Z,34.30
2019-05-18T11:46:02.965Z,34.60
2019-05-18T11:48:36.722Z,33.60
2019-05-18T11:51:11.016Z,33.60
2019-05-18T11:53:57.208Z,33.70
2019-05-18T11:56:19.801Z,34.90
2019-05-18T11:58:53.892Z,34.40
2019-05-18T12:01:27.235Z,33.30
2019-05-18T12:04:00.901Z,32.00
2019-05-18T12:06:35.136Z,31.00
2019-05-18T12:09:08.662Z,31.90
2019-05-18T12:11:42.461Z,31.90
2019-05-18T12:14:21.346Z,31.30
2019-05-18T12:16:54.651Z,30.00
2019-05-18T12:19:28.384Z,30.80
2019-05-18T12:22:01.981Z,30.90
2019-05-18T12:24:51.874Z,30.80
2019-05-18T12:27:28.735Z,30.80
2019-05-18T12:30:02.018Z,28.90
2019-05-18T12:32:35.782Z,29.40
2019-05-18T12:35:08.659Z,29.10
2019-05-18T12:37:42.500Z,29.10
2019-05-18T12:40:18.705Z,29.90
2019-05-18T12:42:52.036Z,29.50
2019-05-18T12:45:26.319Z,29.00
2019-05-18T12:47:59.496Z,28.60
2019-05-18T12:50:32.356Z,28.50
2019-05-18T12:53:06.478Z,29.00
2019-05-18T12:55:40.186Z,28.80
2019-05-18T12:58:13.982Z,29.80
2019-05-18T13:00:45.999Z,29.50
2019-05-18T13:03:18.750Z,29.80
2019-05-18T13:05:51.255Z,28.90
2019-05-18T13:08:24.121Z,28.90
2019-05-18T13:10:56.591Z,29.90
2019-05-18T13:13:29.558Z,29.10
2019-05-18T13:16:02.142Z,28.50
2019-05-18T13:18:34.944Z,29.20
2019-05-18T13:21:07.442Z,29.20
2019-05-18T13:23:39.893Z,28.00
2019-05-18T13:26:11.900Z,29.20
2019-05-18T13:28:45.666Z,29.00
2019-05-18T13:31:18.373Z,28.30
2019-05-18T13:33:51.237Z,27.80
2019-05-18T13:36:23.955Z,26.70
2019-05-18T13:38:57.302Z,27.40
2019-05-18T13:41:29.753Z,27.80
2019-05-18T13:44:02.704Z,27.50
2019-05-18T13:46:35.607Z,27.00
2019-05-18T13:49:08.439Z,26.80
2019-05-18T13:51:41.583Z,26.80
2019-05-18T13:54:14.531Z,27.20
2019-05-18T13:56:48.019Z,28.20
2019-05-18T13:59:20.005Z,27.80
2019-05-18T14:01:55.043Z,26.70
2019-05-18T14:04:27.897Z,25.70
2019-05-18T14:07:00.412Z,25.40
2019-05-18T14:09:33.538Z,25.30
2019-05-18T14:12:06.477Z,24.80
2019-05-18T14:14:40.743Z,23.80
2019-05-18T14:17:13.813Z,25.30
2019-05-18T14:19:47.140Z,25.70
2019-05-18T14:22:20.224Z,25.00
2019-05-18T14:24:54.176Z,22.60
2019-05-18T14:27:26.577Z,23.20
2019-05-18T14:29:59.376Z,23.70
2019-05-18T14:32:32.170Z,25.20
2019-05-18T14:35:05.025Z,26.00
2019-05-18T14:37:38.045Z,24.00
2019-05-18T14:40:11.202Z,25.00
2019-05-18T14:42:43.635Z,22.60
2019-05-18T14:45:17.085Z,22.70
2019-05-18T14:47:49.082Z,24.30
2019-05-18T14:50:22.291Z,23.30
2019-05-18T14:52:55.239Z,24.50
2019-05-18T14:55:33.877Z,23.90
2019-05-18T14:58:02.743Z,23.10
2019-05-18T15:00:35.870Z,24.20
2019-05-18T15:03:08.359Z,23.90
2019-05-18T15:05:41.720Z,24.40
2019-05-18T15:08:15.604Z,22.90
2019-05-18T15:10:48.397Z,22.40
2019-05-18T15:13:20.821Z,22.90
2019-05-18T15:15:53.862Z,24.40
2019-05-18T15:18:26.270Z,23.40
2019-05-18T15:20:59.511Z,24.20
2019-05-18T15:23:32.830Z,24.10
2019-05-18T15:26:06.699Z,23.20
2019-05-18T15:28:39.933Z,22.20
2019-05-18T15:31:11.921Z,23.60
2019-05-18T15:33:45.074Z,23.30
2019-05-18T15:36:18.223Z,23.60
2019-05-18T15:38:51.107Z,23.20
2019-05-18T15:41:25.372Z,24.40
2019-05-18T15:43:59.138Z,23.40
2019-05-18T15:46:32.767Z,22.30
2019-05-18T15:49:05.678Z,22.10
2019-05-18T15:51:38.973Z,22.80
2019-05-18T15:54:13.057Z,22.80
2019-05-18T15:56:46.800Z,23.60
2019-05-18T15:59:20.098Z,22.40
2019-05-18T16:01:53.438Z,22.70
2019-05-18T16:04:26.804Z,23.40
2019-05-18T16:07:00.529Z,23.50
2019-05-18T16:09:34.436Z,23.70
2019-05-18T16:12:08.197Z,23.80
2019-05-18T16:14:41.507Z,24.10
2019-05-18T16:17:14.770Z,23.60
2019-05-18T16:19:47.592Z,22.90
2019-05-18T16:22:21.370Z,23.90
2019-05-18T16:24:55.662Z,24.10
2019-05-18T16:27:29.567Z,24.00
2019-05-18T16:30:02.887Z,24.50
2019-05-18T16:32:36.996Z,24.80
2019-05-18T16:35:11.551Z,25.40
2019-05-18T16:37:44.796Z,27.30
2019-05-18T16:40:18.485Z,26.90
2019-05-18T16:42:52.366Z,27.40
2019-05-18T16:45:25.778Z,27.90
2019-05-18T16:47:59.495Z,28.90
2019-05-18T16:50:33.561Z,28.90
2019-05-18T16:53:06.866Z,29.50
2019-05-18T16:55:40.667Z,30.00
2019-05-18T16:58:14.408Z,30.70
2019-05-18T17:00:49.463Z,31.00
2019-05-18T17:03:23.193Z,31.30
2019-05-18T17:05:55.950Z,31.40
2019-05-18T17:08:29.319Z,30.50
2019-05-18T17:11:02.620Z,30.40
2019-05-18T17:13:35.427Z,30.00
2019-05-18T17:16:08.849Z,30.50
2019-05-18T17:18:41.767Z,29.70
2019-05-18T17:21:15.981Z,29.40
2019-05-18T17:23:49.547Z,29.50
2019-05-18T17:26:23.772Z,29.30
2019-05-18T17:28:57.015Z,29.50
2019-05-18T17:31:31.150Z,29.90
2019-05-18T17:34:05.498Z,29.90
2019-05-18T17:36:39.188Z,29.90
2019-05-18T17:39:11.869Z,30.00
2019-05-18T17:41:45.776Z,30.60
2019-05-18T17:44:19.877Z,30.80
2019-05-18T17:46:53.540Z,31.40
2019-05-18T17:49:27.594Z,30.30
2019-05-18T17:52:00.862Z,30.30
2019-05-18T17:54:34.795Z,30.80
2019-05-18T17:57:09.334Z,30.60
2019-05-18T17:59:43.908Z,31.00
2019-05-18T18:02:17.106Z,31.60
2019-05-18T18:04:54.081Z,32.50
2019-05-18T18:07:25.516Z,33.20
2019-05-18T18:09:58.846Z,33.10
2019-05-18T18:12:32.486Z,34.50
2019-05-18T18:15:06.524Z,34.70
2019-05-18T18:17:39.844Z,35.50
2019-05-18T18:20:14.835Z,35.70
2019-05-18T18:22:48.555Z,36.20
2019-05-18T18:25:22.364Z,36.70
2019-05-18T18:27:55.633Z,36.10
2019-05-18T18:30:28.121Z,36.40
2019-05-18T18:33:02.331Z,36.20
2019-05-18T18:35:43.710Z,36.30
2019-05-18T18:38:17.930Z,36.80
2019-05-18T18:40:51.736Z,36.20
2019-05-18T18:43:28.230Z,36.50
2019-05-18T18:46:01.458Z,36.90
2019-05-18T18:48:34.821Z,37.70
2019-05-18T18:51:09.008Z,37.70
2019-05-18T18:53:42.710Z,38.20
2019-05-18T18:56:16.465Z,38.20
2019-05-18T18:58:50.095Z,38.20
2019-05-18T19:01:23.403Z,38.70
2019-05-18T19:03:57.072Z,39.10
2019-05-18T19:06:30.026Z,38.80
2019-05-18T19:09:03.481Z,39.40
2019-05-18T19:11:36.793Z,39.60
2019-05-18T19:14:10.638Z,39.80
2019-05-18T19:16:43.403Z,39.60
2019-05-18T19:19:16.653Z,40.10
2019-05-18T19:21:50.501Z,40.20
2019-05-18T19:24:23.759Z,40.40
2019-05-18T19:26:57.502Z,40.50
2019-05-18T19:29:30.267Z,40.10
2019-05-18T19:32:03.635Z,40.00
2019-05-18T19:34:37.346Z,39.80
2019-05-18T19:37:10.977Z,40.40
2019-05-18T19:39:44.802Z,40.50
2019-05-18T19:42:18.536Z,41.50
2019-05-18T19:44:51.849Z,41.50
2019-05-18T19:47:25.674Z,40.90
2019-05-18T19:49:59.514Z,41.40
2019-05-18T19:52:33.252Z,40.90
2019-05-18T19:55:07.059Z,42.00
2019-05-18T19:57:40.366Z,42.00
2019-05-18T20:00:15.660Z,41.80
2019-05-18T20:02:49.347Z,42.20
2019-05-18T20:05:25.514Z,42.10
2019-05-18T20:07:58.366Z,41.80
2019-05-18T20:10:30.877Z,42.00
2019-05-18T20:13:03.784Z,41.80
2019-05-18T20:15:36.203Z,41.40
2019-05-18T20:18:08.743Z,42.00
2019-05-18T20:20:42.369Z,42.40
2019-05-18T20:23:14.440Z,42.20
2019-05-18T20:25:46.405Z,42.50
2019-05-18T20:28:23.668Z,42.70
2019-05-18T20:30:54.329Z,42.60
2019-05-18T20:33:27.656Z,42.70
2019-05-18T20:36:00.402Z,43.70
2019-05-18T20:38:33.789Z,43.20
2019-05-18T20:41:06.700Z,43.30
2019-05-18T20:43:40.341Z,43.30
2019-05-18T20:46:13.576Z,43.50
2019-05-18T20:48:46.995Z,43.60
2019-05-18T20:51:20.328Z,44.40
2019-05-18T20:53:52.379Z,44.40
2019-05-18T20:56:24.916Z,44.40
2019-05-18T20:58:58.373Z,44.50
2019-05-18T21:01:32.450Z,44.00
2019-05-18T21:04:06.155Z,44.10
2019-05-18T21:06:39.119Z,42.90
2019-05-18T21:09:11.937Z,42.80
2019-05-18T21:11:45.653Z,42.50
2019-05-18T21:14:19.551Z,42.70
2019-05-18T21:16:52.308Z,43.30
2019-05-18T21:19:24.781Z,43.60
2019-05-18T21:21:58.629Z,43.80
2019-05-18T21:24:32.823Z,43.70
2019-05-18T21:27:06.403Z,44.00
2019-05-18T21:29:40.233Z,44.40
2019-05-18T21:32:14.241Z,44.70
2019-05-18T21:34:48.071Z,44.80
2019-05-18T21:37:21.254Z,45.20
2019-05-18T21:39:54.664Z,44.90
2019-05-18T21:42:28.155Z,45.10
2019-05-18T21:45:02.060Z,45.30
2019-05-18T21:47:36.152Z,45.20
2019-05-18T21:50:09.385Z,45.00
2019-05-18T21:52:42.656Z,44.80
2019-05-18T21:55:17.188Z,45.10
2019-05-18T21:57:49.920Z,44.50
2019-05-18T22:00:24.821Z,44.70
2019-05-18T22:02:58.033Z,45.70
2019-05-18T22:05:31.776Z,45.30
2019-05-18T22:08:05.109Z,45.40
2019-05-18T22:10:37.948Z,45.50
2019-05-18T22:13:11.670Z,45.80
2019-05-18T22:15:45.460Z,46.60
2019-05-18T22:18:24.687Z,46.50
2019-05-18T22:20:53.671Z,46.20
2019-05-18T22:23:26.976Z,46.10
2019-05-18T22:26:00.292Z,46.70
2019-05-18T22:28:33.488Z,46.70
2019-05-18T22:31:06.744Z,47.40
2019-05-18T22:33:40.016Z,47.40
2019-05-18T22:36:13.824Z,47.70
2019-05-18T22:38:47.074Z,47.90
2019-05-18T22:41:20.339Z,48.40
2019-05-18T22:43:53.161Z,47.70
2019-05-18T22:46:26.815Z,48.10
2019-05-18T22:49:00.579Z,47.40
2019-05-18T22:51:34.861Z,49.10
2019-05-18T22:54:08.469Z,48.10
2019-05-18T22:56:41.752Z,49.00
2019-05-18T22:59:14.628Z,48.20
2019-05-18T23:01:47.838Z,48.10
2019-05-18T23:04:21.552Z,47.50
2019-05-18T23:06:54.926Z,47.60
2019-05-18T23:09:29.077Z,47.70
2019-05-18T23:12:03.269Z,46.70
2019-05-18T23:14:37.014Z,46.30
2019-05-18T23:17:10.188Z,47.50
2019-05-18T23:19:43.145Z,46.80
2019-05-18T23:22:16.782Z,46.50
2019-05-18T23:24:50.993Z,46.20
2019-05-18T23:27:24.247Z,46.80
2019-05-18T23:29:57.102Z,47.20
2019-05-18T23:32:30.877Z,46.90
2019-05-18T23:35:04.227Z,46.70
2019-05-18T23:37:37.426Z,46.50
2019-05-18T23:40:11.313Z,46.50
2019-05-18T23:42:44.958Z,46.90
2019-05-18T23:45:18.781Z,47.00
2019-05-18T23:47:51.617Z,47.40
2019-05-18T23:50:25.355Z,47.90
2019-05-18T23:52:58.951Z,48.20
2019-05-18T23:55:33.146Z,48.10
2019-05-18T23:58:06.956Z,48.40
